Time;durP1;ratioP1;P1;durP2;ratioP2;P2;SDS_P1;SDS_P2;PMS_P1;PMS_P2;Temp;Humidity;BMP_temperature;BMP_pressure;BME280_temperature;BME280_humidity;BME280_pressure;Samples;Min_cycle;Max_cycle;Signal;HPM_P1;HPM_P2
2023/05/15 00:00:24;;;;;;;0.20;0.20;;;10.90;99.90;;;;;;5116509;28;20391;-70
2023/05/15 00:02:50;;;;;;;1.70;1.60;;;10.80;99.90;;;;;;5116134;28;20487;-70
2023/05/15 00:05:15;;;;;;;0.68;0.68;;;10.70;99.90;;;;;;5116435;28;20395;-71
2023/05/15 00:07:41;;;;;;;2.05;1.83;;;10.60;99.90;;;;;;5116328;28;20024;-69
2023/05/15 00:10:07;;;;;;;2.40;1.73;;;10.60;99.90;;;;;;5116556;28;20404;-70
2023/05/15 00:12:33;;;;;;;5.07;2.75;;;10.60;99.90;;;;;;5116089;28;20438;-69
2023/05/15 00:14:59;;;;;;;7.05;1.55;;;10.60;99.90;;;;;;5116709;28;20095;-69
2023/05/15 00:17:25;;;;;;;0.15;0.15;;;10.60;99.90;;;;;;5115806;28;20027;-69
2023/05/15 00:19:56;;;;;;;7.57;2.05;;;10.70;99.90;;;;;;5116285;28;20119;-69
2023/05/15 00:22:22;;;;;;;3.20;2.53;;;10.70;99.90;;;;;;5115975;28;20072;-69
2023/05/15 00:24:48;;;;;;;1.58;1.48;;;10.50;99.90;;;;;;5116369;28;20028;-70
2023/05/15 00:27:13;;;;;;;1.65;1.55;;;10.70;99.90;;;;;;5097700;28;20456;-69
2023/05/15 00:29:39;;;;;;;0.10;0.10;;;10.70;99.90;;;;;;5116063;28;20038;-69
2023/05/15 00:32:05;;;;;;;2.75;1.30;;;10.90;99.90;;;;;;5115677;28;20024;-69
2023/05/15 00:34:31;;;;;;;0.13;0.13;;;10.80;99.90;;;;;;5115869;28;20020;-69
2023/05/15 00:36:58;;;;;;;0.10;0.10;;;10.80;99.90;;;;;;5116014;28;20492;-69
2023/05/15 00:39:23;;;;;;;0.10;0.10;;;11.00;99.90;;;;;;5115905;28;20016;-69
2023/05/15 00:41:50;;;;;;;3.72;2.35;;;11.20;99.90;;;;;;5097182;28;20023;-69
2023/05/15 00:44:19;;;;;;;0.30;0.30;;;11.10;99.90;;;;;;5114658;28;20510;-70
2023/05/15 00:46:45;;;;;;;2.83;1.65;;;11.00;99.90;;;;;;5115395;28;20035;-72
2023/05/15 00:49:12;;;;;;;6.85;1.60;;;11.10;99.90;;;;;;5115660;28;20019;-75
2023/05/15 00:51:42;;;;;;;1.42;1.33;;;10.80;99.90;;;;;;5115502;28;20463;-73
2023/05/15 00:54:09;;;;;;;0.68;0.68;;;10.80;99.90;;;;;;5115743;28;20057;-75
2023/05/15 00:56:35;;;;;;;0.45;0.45;;;10.80;99.90;;;;;;5097013;28;20032;-75
2023/05/15 00:59:03;;;;;;;0.88;0.88;;;10.90;99.90;;;;;;5097234;28;20034;-74
2023/05/15 01:01:33;;;;;;;0.63;0.63;;;10.70;99.90;;;;;;5114139;27;20387;-74
2023/05/15 01:04:03;;;;;;;4.22;3.10;;;10.80;99.90;;;;;;5092714;28;20036;-74
2023/05/15 01:06:30;;;;;;;1.30;1.30;;;10.80;99.90;;;;;;5100318;28;20031;-72
2023/05/15 01:08:58;;;;;;;1.38;1.27;;;10.80;99.90;;;;;;5113339;27;20089;-74
2023/05/15 01:11:27;;;;;;;0.60;0.60;;;10.70;99.90;;;;;;5102987;27;20472;-75
2023/05/15 01:13:52;;;;;;;0.10;0.10;;;10.60;99.90;;;;;;5135750;27;20047;-75
2023/05/15 01:16:20;;;;;;;2.30;2.08;;;10.80;99.90;;;;;;5135240;27;20081;-74
2023/05/15 01:18:46;;;;;;;0.10;0.10;;;10.80;99.90;;;;;;5129606;27;20020;-74
2023/05/15 01:21:36;;;;;;;2.88;2.67;;;10.60;99.90;;;;;;5108990;27;20118;-74
2023/05/15 01:24:21;;;;;;;1.50;1.10;;;10.50;99.90;;;;;;5109098;27;20042;-75
2023/05/15 01:27:25;;;;;;;1.65;1.55;;;10.50;99.90;;;;;;5116872;27;20107;-75
2023/05/15 01:30:18;;;;;;;0.88;0.88;;;10.50;99.90;;;;;;5099872;27;20073;-75
2023/05/15 01:32:55;;;;;;;1.77;1.38;;;10.80;99.90;;;;;;5093671;27;20023;-75
2023/05/15 01:35:26;;;;;;;6.47;2.28;;;10.90;99.90;;;;;;5114829;27;20034;-75
2023/05/15 01:38:07;;;;;;;3.47;2.50;;;11.10;99.90;;;;;;5104880;27;20071;-73
2023/05/15 01:40:33;;;;;;;4.73;4.37;;;10.90;99.90;;;;;;5135015;27;20092;-73
2023/05/15 01:43:06;;;;;;;0.98;0.98;;;10.80;99.90;;;;;;5134794;27;20027;-75
2023/05/15 01:45:32;;;;;;;1.40;1.30;;;10.70;99.90;;;;;;5116182;27;20088;-73
2023/05/15 01:48:00;;;;;;;2.03;1.90;;;10.80;99.90;;;;;;5116589;27;20019;-72
2023/05/15 01:50:29;;;;;;;9.68;1.85;;;10.80;99.90;;;;;;5099758;27;20037;-70
2023/05/15 01:52:58;;;;;;;0.10;0.10;;;10.90;99.90;;;;;;5116616;27;20448;-73
2023/05/15 01:55:28;;;;;;;2.70;2.50;;;11.00;99.90;;;;;;5116163;27;20467;-75
2023/05/15 01:57:56;;;;;;;0.10;0.10;;;11.00;99.90;;;;;;5134407;27;20090;-70
2023/05/15 02:00:24;;;;;;;1.95;1.38;;;11.00;99.90;;;;;;5116554;27;20124;-73
2023/05/15 02:02:52;;;;;;;2.55;2.22;;;11.20;99.90;;;;;;5134483;27;20042;-74
2023/05/15 02:05:18;;;;;;;2.78;2.50;;;11.20;99.90;;;;;;5134776;27;20034;-73
2023/05/15 02:07:47;;;;;;;1.00;0.88;;;11.10;99.90;;;;;;5116125;27;20012;-73
2023/05/15 02:10:17;;;;;;;3.72;1.20;;;11.30;99.90;;;;;;5126586;27;20038;-73
2023/05/15 02:12:48;;;;;;;0.20;0.20;;;11.30;99.90;;;;;;5110468;27;20455;-74
2023/05/15 02:15:16;;;;;;;0.22;0.22;;;11.40;99.90;;;;;;5116024;27;20378;-75
2023/05/15 02:17:42;;;;;;;0.40;0.40;;;11.50;99.90;;;;;;5134631;27;20106;-72
2023/05/15 02:20:08;;;;;;;1.08;0.80;;;11.50;99.90;;;;;;5134692;27;20058;-70
2023/05/15 02:22:36;;;;;;;1.48;1.38;;;11.50;99.90;;;;;;5134444;27;20046;-70
2023/05/15 02:25:02;;;;;;;19.92;6.13;;;11.50;99.90;;;;;;5134438;27;20495;-69
2023/05/15 02:28:06;;;;;;;8.32;3.95;;;11.70;99.90;;;;;;5115640;27;20031;-70
2023/05/15 02:31:04;;;;;;;16.77;8.40;;;11.50;99.90;;;;;;5088508;27;20035;-69
2023/05/15 02:33:34;;;;;;;20.20;6.13;;;11.40;99.90;;;;;;5070961;27;20043;-70
2023/05/15 02:36:10;;;;;;;5.93;4.28;;;11.40;99.90;;;;;;5115860;27;20023;-69
2023/05/15 02:38:55;;;;;;;5.43;3.67;;;11.20;99.90;;;;;;5133895;27;20110;-69
2023/05/15 02:41:22;;;;;;;5.85;4.82;;;11.00;99.90;;;;;;5133903;27;20122;-70
2023/05/15 02:43:50;;;;;;;0.05;0.05;;;11.20;99.90;;;;;;5115205;27;20398;-69
2023/05/15 02:46:18;;;;;;;1.65;1.23;;;11.20;99.90;;;;;;5115649;27;20102;-69
2023/05/15 02:48:44;;;;;;;3.67;1.20;;;11.50;99.90;;;;;;5133724;27;20058;-69
2023/05/15 02:51:12;;;;;;;15.45;3.90;;;11.50;99.90;;;;;;5115675;27;20015;-70
2023/05/15 02:53:39;;;;;;;4.18;0.65;;;11.50;99.90;;;;;;5133693;27;20059;-70
2023/05/15 02:56:06;;;;;;;0.95;0.75;;;11.40;99.90;;;;;;5115075;27;20054;-69
2023/05/15 02:58:32;;;;;;;2.05;1.95;;;11.70;99.90;;;;;;5133876;27;20059;-70
2023/05/15 03:00:58;;;;;;;0.20;0.20;;;11.80;99.90;;;;;;5115137;27;20023;-72
2023/05/15 03:03:23;;;;;;;0.60;0.60;;;11.80;99.90;;;;;;5133932;27;20031;-74
2023/05/15 03:05:50;;;;;;;5.82;2.92;;;11.90;99.90;;;;;;5114713;28;20027;-73
2023/05/15 03:08:15;;;;;;;4.78;2.55;;;11.70;99.90;;;;;;5115380;28;20059;-73
2023/05/15 03:10:41;;;;;;;9.75;4.43;;;11.50;99.90;;;;;;5102806;28;20472;-73
2023/05/15 03:13:07;;;;;;;1.20;1.10;;;11.40;99.90;;;;;;5095787;28;20035;-75
2023/05/15 03:15:33;;;;;;;3.50;3.20;;;11.50;99.90;;;;;;5115232;28;20015;-75
2023/05/15 03:17:58;;;;;;;6.97;5.78;;;11.50;99.90;;;;;;5133449;28;20055;-74
2023/05/15 03:20:24;;;;;;;4.95;4.00;;;11.40;99.90;;;;;;5115202;28;20023;-75
2023/05/15 03:22:50;;;;;;;4.10;2.10;;;11.50;99.90;;;;;;5133691;28;20034;-72
2023/05/15 03:25:15;;;;;;;7.95;4.07;;;11.40;99.90;;;;;;5133370;28;20392;-74
2023/05/15 03:27:41;;;;;;;6.60;3.20;;;11.40;99.90;;;;;;5115239;28;20027;-74
2023/05/15 03:30:08;;;;;;;4.35;4.00;;;11.60;99.90;;;;;;5133434;28;20068;-73
2023/05/15 03:32:33;;;;;;;24.83;7.25;;;11.40;99.90;;;;;;5115166;28;20029;-74
2023/05/15 03:34:59;;;;;;;1.55;1.45;;;11.40;99.90;;;;;;5115260;28;20027;-74
2023/05/15 03:37:25;;;;;;;1.20;1.20;;;11.30;99.90;;;;;;5115089;28;20030;-75
2023/05/15 03:39:51;;;;;;;4.20;3.42;;;11.20;99.90;;;;;;5133292;28;20035;-74
2023/05/15 03:42:22;;;;;;;0.20;0.20;;;11.00;99.90;;;;;;5133223;28;20042;-76
2023/05/15 03:44:51;;;;;;;3.50;1.27;;;11.00;99.90;;;;;;5133623;28;20054;-75
2023/05/15 03:47:17;;;;;;;16.40;5.40;;;11.20;99.90;;;;;;5133280;28;20017;-74
2023/05/15 03:49:44;;;;;;;0.70;0.52;;;11.20;99.90;;;;;;5133400;28;20050;-73
2023/05/15 03:52:10;;;;;;;0.50;0.50;;;11.30;99.90;;;;;;5133194;28;20042;-73
2023/05/15 03:54:36;;;;;;;1.55;1.45;;;11.60;99.90;;;;;;5132982;28;20463;-73
2023/05/15 03:57:03;;;;;;;1.45;0.98;;;11.40;99.90;;;;;;5132780;28;20019;-74
2023/05/15 03:59:30;;;;;;;1.52;1.27;;;11.60;99.90;;;;;;5133045;28;20023;-74
2023/05/15 04:01:55;;;;;;;3.28;2.83;;;11.40;99.90;;;;;;5132743;28;20062;-73
2023/05/15 04:04:21;;;;;;;3.30;3.10;;;11.50;99.90;;;;;;5132775;28;20135;-73
2023/05/15 04:06:47;;;;;;;2.22;2.03;;;11.30;99.90;;;;;;5114175;28;20031;-75
2023/05/15 04:09:13;;;;;;;0.50;0.50;;;11.20;99.90;;;;;;5132232;28;20023;-73
2023/05/15 04:11:38;;;;;;;3.90;2.53;;;11.50;99.90;;;;;;5100253;28;20019;-73
2023/05/15 04:14:04;;;;;;;2.53;2.33;;;11.20;99.90;;;;;;5133093;28;20076;-73
2023/05/15 04:16:30;;;;;;;6.00;2.38;;;11.20;99.90;;;;;;5132606;28;20475;-73
2023/05/15 04:18:56;;;;;;;10.48;9.32;;;11.00;99.90;;;;;;5134641;27;20030;-74
2023/05/15 04:21:21;;;;;;;2.65;2.42;;;10.80;99.90;;;;;;5136392;27;20026;-73
2023/05/15 04:23:47;;;;;;;11.70;6.30;;;10.60;99.90;;;;;;5136424;27;20498;-74
2023/05/15 04:26:13;;;;;;;10.38;6.95;;;10.50;99.90;;;;;;5136715;27;20027;-75
2023/05/15 04:28:38;;;;;;;2.00;1.90;;;10.50;99.90;;;;;;5136429;27;20091;-73
2023/05/15 04:31:04;;;;;;;19.08;9.65;;;10.60;99.90;;;;;;5136413;27;20102;-74
2023/05/15 04:33:30;;;;;;;16.85;10.43;;;10.70;99.90;;;;;;5117888;27;20044;-77
2023/05/15 04:35:56;;;;;;;4.78;2.60;;;10.60;99.90;;;;;;5136475;27;20132;-72
2023/05/15 04:38:22;;;;;;;27.70;8.80;;;10.50;99.90;;;;;;5135884;27;20019;-74
2023/05/15 04:40:48;;;;;;;43.45;12.45;;;10.40;99.90;;;;;;5117734;27;20030;-73
2023/05/15 04:43:13;;;;;;;11.02;5.57;;;10.30;99.90;;;;;;5117637;27;20031;-71
2023/05/15 04:45:39;;;;;;;10.95;7.20;;;10.40;99.90;;;;;;5117837;27;20114;-73
2023/05/15 04:48:05;;;;;;;23.08;10.77;;;10.30;99.90;;;;;;5117734;27;20023;-72
2023/05/15 04:50:31;;;;;;;12.68;7.07;;;10.50;99.90;;;;;;5136179;27;20026;-73
2023/05/15 04:52:57;;;;;;;1.83;1.70;;;10.40;99.90;;;;;;5135903;27;20030;-74
2023/05/15 04:55:22;;;;;;;8.30;4.32;;;10.50;99.90;;;;;;5117589;27;20367;-76
2023/05/15 04:57:48;;;;;;;10.85;4.60;;;10.40;99.90;;;;;;5135963;27;20027;-74
2023/05/15 05:00:14;;;;;;;16.67;9.95;;;10.50;99.90;;;;;;5136166;27;20024;-74
2023/05/15 05:02:44;;;;;;;3.22;2.88;;;10.50;99.90;;;;;;5135807;27;20023;-76
2023/05/15 05:05:09;;;;;;;4.47;3.53;;;10.60;99.90;;;;;;5135825;27;20383;-76
2023/05/15 05:07:35;;;;;;;9.43;2.45;;;10.60;99.90;;;;;;5135378;27;20023;-69
2023/05/15 05:10:03;;;;;;;11.82;6.05;;;10.70;99.90;;;;;;5129936;27;20399;-69
2023/05/15 05:12:28;;;;;;;15.52;5.90;;;10.80;99.90;;;;;;5127867;27;20031;-68
2023/05/15 05:14:55;;;;;;;1.25;1.08;;;11.10;99.90;;;;;;5135604;27;20015;-69
2023/05/15 05:17:21;;;;;;;10.65;4.75;;;11.20;99.90;;;;;;5135564;27;20095;-69
2023/05/15 05:19:47;;;;;;;2.53;1.48;;;11.30;99.90;;;;;;5135492;27;20026;-75
2023/05/15 05:22:13;;;;;;;16.63;2.17;;;11.50;99.90;;;;;;5135181;27;20483;-77
2023/05/15 05:24:38;;;;;;;6.80;4.35;;;11.60;99.90;;;;;;5116981;27;20088;-76
2023/05/15 05:27:05;;;;;;;4.95;4.55;;;11.80;99.90;;;;;;5117079;27;20023;-74
2023/05/15 05:29:31;;;;;;;6.20;2.05;;;11.80;99.90;;;;;;5135182;27;20035;-74
2023/05/15 05:31:57;;;;;;;2.38;2.25;;;12.00;99.90;;;;;;5135332;27;20098;-74
2023/05/15 05:34:22;;;;;;;15.70;10.45;;;12.20;99.90;;;;;;5135345;27;20430;-74
2023/05/15 05:36:49;;;;;;;1.85;1.75;;;11.90;99.90;;;;;;5134756;27;20084;-73
2023/05/15 05:39:16;;;;;;;31.92;11.10;;;11.90;99.90;;;;;;5135320;27;20015;-73
2023/05/15 05:41:42;;;;;;;8.43;5.45;;;11.70;99.90;;;;;;5135046;27;20043;-73
2023/05/15 05:44:08;;;;;;;1.83;0.73;;;11.90;99.90;;;;;;5135065;27;20053;-74
2023/05/15 05:46:34;;;;;;;6.32;3.55;;;11.60;99.90;;;;;;5135293;27;20023;-74
2023/05/15 05:49:00;;;;;;;4.47;2.83;;;11.70;99.90;;;;;;5116717;27;20030;-73
2023/05/15 05:51:25;;;;;;;4.13;3.78;;;11.50;99.90;;;;;;5135173;27;20471;-74
2023/05/15 05:53:51;;;;;;;4.93;4.18;;;11.80;99.90;;;;;;5134810;27;20015;-74
2023/05/15 05:56:17;;;;;;;2.15;1.98;;;11.70;99.90;;;;;;5135197;27;20379;-75
2023/05/15 05:58:43;;;;;;;17.42;5.35;;;11.40;99.90;;;;;;5134686;27;20542;-70
2023/05/15 06:01:09;;;;;;;61.42;25.60;;;11.30;99.90;;;;;;5116520;27;20054;-70
2023/05/15 06:03:37;;;;;;;9.85;4.28;;;11.30;99.90;;;;;;5134820;27;20035;-70
2023/05/15 06:06:03;;;;;;;2.28;2.15;;;11.30;99.90;;;;;;5134427;27;20474;-71
2023/05/15 06:08:29;;;;;;;28.77;8.48;;;11.60;99.90;;;;;;5134472;27;20391;-72
2023/05/15 06:10:55;;;;;;;17.80;8.55;;;11.70;99.90;;;;;;5102354;28;20012;-71
2023/05/15 06:13:21;;;;;;;12.00;4.15;;;11.50;99.90;;;;;;5133656;27;20055;-71
2023/05/15 06:15:46;;;;;;;10.05;5.50;;;11.70;99.90;;;;;;5134713;27;20425;-70
2023/05/15 06:18:13;;;;;;;31.38;11.43;;;12.10;99.90;;;;;;5134162;27;20015;-71
2023/05/15 06:20:38;;;;;;;9.73;5.10;;;12.50;99.90;;;;;;5134241;27;20096;-70
2023/05/15 06:23:04;;;;;;;26.52;11.73;;;12.20;99.90;;;;;;5134229;27;20035;-70
2023/05/15 06:25:30;;;;;;;4.93;4.38;;;12.20;99.90;;;;;;5134116;27;20080;-71
2023/05/15 06:27:56;;;;;;;1.48;1.45;;;12.20;99.90;;;;;;5134153;27;20027;-75
2023/05/15 06:30:22;;;;;;;0.85;0.85;;;11.80;99.90;;;;;;5134056;27;20034;-73
2023/05/15 06:32:47;;;;;;;3.45;2.75;;;11.80;99.90;;;;;;5134352;27;20023;-75
2023/05/15 06:35:13;;;;;;;5.43;2.00;;;12.00;99.90;;;;;;5133547;27;20031;-77
2023/05/15 06:37:39;;;;;;;26.45;13.45;;;11.70;99.90;;;;;;5134194;27;20383;-75
2023/05/15 06:40:05;;;;;;;9.82;7.43;;;11.80;99.90;;;;;;5115178;27;20042;-75
2023/05/15 06:42:31;;;;;;;16.75;8.52;;;12.00;99.90;;;;;;5133482;27;20023;-74
2023/05/15 06:44:58;;;;;;;19.05;8.48;;;11.90;99.90;;;;;;5133905;27;20046;-72
2023/05/15 06:47:24;;;;;;;6.57;5.93;;;11.80;99.90;;;;;;5133584;27;20030;-73
2023/05/15 06:49:50;;;;;;;7.03;5.07;;;12.00;99.90;;;;;;5133818;27;20031;-76
2023/05/15 06:52:15;;;;;;;33.38;11.73;;;12.10;99.90;;;;;;5133886;27;20023;-71
2023/05/15 06:54:42;;;;;;;34.40;19.02;;;11.90;99.90;;;;;;5115498;27;20031;-76
2023/05/15 06:57:07;;;;;;;3.30;1.85;;;11.70;99.90;;;;;;5133742;27;20083;-74
2023/05/15 06:59:34;;;;;;;26.20;11.70;;;11.90;99.90;;;;;;5133727;27;20915;-75
2023/05/15 07:02:04;;;;;;;5.20;1.55;;;12.40;99.90;;;;;;5133857;27;20035;-74
2023/05/15 07:04:30;;;;;;;0.95;0.95;;;12.30;99.90;;;;;;5087611;28;20043;-71
2023/05/15 07:06:56;;;;;;;7.30;5.53;;;12.70;99.90;;;;;;5133815;28;20023;-72
2023/05/15 07:09:23;;;;;;;2.20;1.83;;;12.80;99.90;;;;;;5132751;28;20042;-74
2023/05/15 07:11:49;;;;;;;24.00;10.90;;;12.90;99.90;;;;;;5120129;28;20534;-71
2023/05/15 07:14:14;;;;;;;11.45;6.60;;;12.80;99.90;;;;;;5133872;28;20094;-71
2023/05/15 07:16:40;;;;;;;1.15;1.15;;;12.40;99.90;;;;;;5133533;28;20096;-74
2023/05/15 07:19:07;;;;;;;6.72;2.28;;;12.90;99.90;;;;;;5133258;28;20030;-71
2023/05/15 07:21:33;;;;;;;0.30;0.20;;;13.10;99.90;;;;;;5133466;28;20020;-73
2023/05/15 07:23:59;;;;;;;10.57;6.45;;;13.60;99.90;;;;;;5133682;28;20043;-70
2023/05/15 07:26:25;;;;;;;0.30;0.20;;;13.40;99.90;;;;;;5115129;28;20027;-75
2023/05/15 07:28:50;;;;;;;3.92;3.47;;;13.60;99.90;;;;;;5133828;28;20097;-75
2023/05/15 07:31:16;;;;;;;5.88;4.90;;;13.90;99.90;;;;;;5133299;28;20015;-71
2023/05/15 07:33:42;;;;;;;28.40;10.95;;;13.50;99.90;;;;;;5133293;28;20352;-74
2023/05/15 07:36:08;;;;;;;23.27;13.20;;;13.00;99.90;;;;;;5133384;28;20035;-70
2023/05/15 07:38:34;;;;;;;21.75;13.88;;;12.60;99.90;;;;;;5133475;28;20023;-75
2023/05/15 07:40:59;;;;;;;12.55;7.55;;;12.80;99.90;;;;;;5133157;28;20069;-76
2023/05/15 07:43:25;;;;;;;2.97;2.65;;;12.80;99.90;;;;;;5133375;28;20127;-75
2023/05/15 07:45:51;;;;;;;7.85;2.30;;;13.10;99.90;;;;;;5133152;28;20015;-76
2023/05/15 07:48:18;;;;;;;6.20;4.88;;;13.10;99.90;;;;;;5133163;28;20078;-70
2023/05/15 07:50:45;;;;;;;0.30;0.30;;;12.80;99.90;;;;;;5133410;28;20031;-77
2023/05/15 07:53:12;;;;;;;18.85;7.32;;;13.00;99.90;;;;;;5117411;27;20023;-74
2023/05/15 07:55:39;;;;;;;3.15;2.67;;;13.10;99.90;;;;;;5136958;27;20011;-76
2023/05/15 07:58:06;;;;;;;0.17;0.17;;;13.30;99.90;;;;;;5137158;27;20561;-76
2023/05/15 08:00:32;;;;;;;22.67;5.85;;;13.60;99.90;;;;;;5136846;27;20030;-76
2023/05/15 08:02:58;;;;;;;12.82;8.07;;;14.00;99.90;;;;;;5118768;27;20446;-76
2023/05/15 08:05:24;;;;;;;26.92;11.23;;;14.50;99.90;;;;;;5136994;27;20035;-75
2023/05/15 08:07:50;;;;;;;23.95;11.52;;;13.90;99.90;;;;;;5108179;27;20030;-74
2023/05/15 08:10:16;;;;;;;2.47;2.28;;;13.80;99.90;;;;;;5110176;28;20036;-74
2023/05/15 08:12:46;;;;;;;13.50;7.20;;;13.70;99.90;;;;;;5130859;27;20488;-74
2023/05/15 08:15:12;;;;;;;25.38;10.52;;;14.20;99.90;;;;;;5136720;27;20035;-75
2023/05/15 08:17:38;;;;;;;9.98;4.00;;;14.10;99.90;;;;;;5118884;27;20027;-70
2023/05/15 08:20:04;;;;;;;3.13;2.15;;;14.60;99.90;;;;;;5118086;27;20390;-68
2023/05/15 08:22:30;;;;;;;19.65;5.53;;;14.80;99.90;;;;;;5136848;27;20028;-70
2023/05/15 08:24:57;;;;;;;6.97;3.42;;;14.60;99.90;;;;;;5136600;27;20155;-70
2023/05/15 08:27:22;;;;;;;4.40;1.85;;;14.90;99.90;;;;;;5118156;27;20027;-70
2023/05/15 08:29:48;;;;;;;3.42;3.03;;;15.30;99.90;;;;;;5117859;27;20041;-72
2023/05/15 08:32:14;;;;;;;22.15;7.20;;;15.20;99.90;;;;;;5136454;27;20090;-70
2023/05/15 08:34:40;;;;;;;24.88;10.35;;;15.20;99.90;;;;;;5136597;27;20016;-70
2023/05/15 08:37:06;;;;;;;2.40;2.20;;;14.30;99.90;;;;;;5136301;27;20030;-70
2023/05/15 08:39:32;;;;;;;11.13;6.35;;;14.20;99.90;;;;;;5136613;27;20114;-70
2023/05/15 08:42:20;;;;;;;23.20;8.55;;;14.70;99.90;;;;;;5135985;27;20360;-68
2023/05/15 08:44:47;;;;;;;3.25;1.90;;;14.30;99.90;;;;;;5136150;27;20122;-70
2023/05/15 08:47:14;;;;;;;27.85;7.57;;;14.60;99.90;;;;;;5135857;27;20031;-69
2023/05/15 08:49:53;;;;;;;20.42;12.15;;;14.60;99.90;;;;;;5136465;27;20196;-69
2023/05/15 08:52:19;;;;;;;32.88;12.57;;;14.10;99.90;;;;;;5136097;27;20031;-69
2023/05/15 08:54:46;;;;;;;13.70;6.28;;;14.00;99.90;;;;;;5136142;27;20083;-75
2023/05/15 08:57:13;;;;;;;41.08;7.55;;;13.90;99.90;;;;;;5135734;27;20432;-69
2023/05/15 08:59:39;;;;;;;18.75;9.15;;;14.30;99.90;;;;;;5136032;27;20084;-74
2023/05/15 09:02:06;;;;;;;19.20;8.57;;;14.20;99.90;;;;;;5135890;27;20552;-74
2023/05/15 09:04:31;;;;;;;19.65;9.52;;;14.00;99.90;;;;;;5135126;27;20035;-75
2023/05/15 09:07:00;;;;;;;4.60;4.05;;;13.90;99.90;;;;;;5135853;27;20019;-73
2023/05/15 09:09:28;;;;;;;10.88;6.88;;;13.70;99.90;;;;;;5134463;27;20031;-76
2023/05/15 09:11:54;;;;;;;2.63;1.77;;;13.70;99.90;;;;;;5122811;27;20494;-75
2023/05/15 09:14:20;;;;;;;13.80;6.15;;;14.10;99.90;;;;;;5135775;27;20038;-74
2023/05/15 09:16:49;;;;;;;3.85;3.58;;;13.90;99.90;;;;;;5135743;27;20387;-74
2023/05/15 09:19:16;;;;;;;21.40;10.50;;;14.30;99.90;;;;;;5135491;27;20497;-74
2023/05/15 09:21:41;;;;;;;9.40;5.45;;;14.30;99.90;;;;;;5135488;27;20063;-75
2023/05/15 09:24:25;;;;;;;5.72;1.15;;;14.30;99.90;;;;;;5135401;27;20039;-74
2023/05/15 09:27:08;;;;;;;10.13;5.05;;;14.20;99.90;;;;;;5135607;27;20019;-75
2023/05/15 09:29:36;;;;;;;5.57;4.13;;;14.20;99.90;;;;;;5135444;27;20094;-76
2023/05/15 09:32:13;;;;;;;10.98;5.72;;;14.20;99.90;;;;;;5135192;27;20094;-75
2023/05/15 09:34:41;;;;;;;15.63;8.77;;;14.50;99.90;;;;;;5135575;27;20035;-75
2023/05/15 09:37:09;;;;;;;40.50;9.85;;;14.20;99.90;;;;;;5116830;27;20034;-76
2023/05/15 09:39:41;;;;;;;8.95;5.85;;;14.00;99.90;;;;;;5135343;27;20023;-74
2023/05/15 09:42:12;;;;;;;8.75;4.53;;;14.10;99.90;;;;;;5134712;27;20039;-74
2023/05/15 09:44:42;;;;;;;31.47;15.17;;;14.10;99.90;;;;;;5134900;27;20241;-75
2023/05/15 09:47:09;;;;;;;28.60;12.45;;;14.40;99.90;;;;;;5134938;27;20463;-76
2023/05/15 09:49:35;;;;;;;8.82;6.68;;;14.10;99.90;;;;;;5135099;27;20031;-74
2023/05/15 09:52:02;;;;;;;16.38;5.38;;;14.20;99.90;;;;;;5134839;27;20054;-69
2023/05/15 09:54:29;;;;;;;17.90;10.20;;;14.50;99.90;;;;;;5134563;27;20068;-75
2023/05/15 09:56:55;;;;;;;27.25;11.43;;;14.50;99.90;;;;;;5134580;27;20053;-70
2023/05/15 09:59:21;;;;;;;8.75;6.55;;;14.20;99.90;;;;;;5116349;27;20031;-71
2023/05/15 10:01:51;;;;;;;16.65;8.32;;;14.10;99.90;;;;;;5134964;27;20102;-76
2023/05/15 10:04:17;;;;;;;14.18;5.70;;;14.00;99.90;;;;;;5134415;27;20122;-76
2023/05/15 10:06:45;;;;;;;5.85;3.13;;;14.10;99.90;;;;;;5134719;27;20432;-74
2023/05/15 10:09:12;;;;;;;10.50;6.57;;;14.20;99.90;;;;;;5115862;27;20031;-76
2023/05/15 10:11:43;;;;;;;12.02;8.00;;;14.10;99.90;;;;;;5120301;27;20478;-70
2023/05/15 10:14:11;;;;;;;21.60;12.98;;;14.00;99.90;;;;;;5134485;27;20066;-73
2023/05/15 10:16:38;;;;;;;11.90;6.35;;;14.10;99.90;;;;;;5134493;27;20083;-73
2023/05/15 10:19:09;;;;;;;19.25;6.22;;;14.00;99.90;;;;;;5134225;27;20439;-71
2023/05/15 10:21:37;;;;;;;19.48;9.40;;;14.10;99.90;;;;;;5134403;27;20030;-76
2023/05/15 10:24:04;;;;;;;29.30;14.32;;;14.00;99.90;;;;;;5134239;27;20176;-75
2023/05/15 10:26:36;;;;;;;29.00;10.38;;;13.90;99.90;;;;;;5115534;27;20092;-74
2023/05/15 10:29:07;;;;;;;23.42;7.20;;;13.80;99.90;;;;;;5134019;27;20033;-75
2023/05/15 10:31:35;;;;;;;24.05;7.55;;;14.00;99.90;;;;;;5115799;27;20113;-75
2023/05/15 10:34:02;;;;;;;13.57;5.57;;;14.10;99.90;;;;;;5134156;27;20015;-74
2023/05/15 10:36:30;;;;;;;13.32;5.80;;;14.10;99.90;;;;;;5134243;27;20035;-74
2023/05/15 10:39:00;;;;;;;43.28;16.77;;;14.20;99.90;;;;;;5133928;27;20051;-72
2023/05/15 10:41:29;;;;;;;13.00;5.80;;;14.00;99.90;;;;;;5115106;27;20073;-73
2023/05/15 10:43:59;;;;;;;5.07;3.25;;;13.90;99.90;;;;;;5133829;27;20416;-76
2023/05/15 10:46:27;;;;;;;43.63;17.58;;;14.00;99.90;;;;;;5133886;27;20029;-75
2023/05/15 10:48:53;;;;;;;28.88;10.88;;;14.00;99.90;;;;;;5115349;27;20606;-74
2023/05/15 10:51:34;;;;;;;11.38;7.03;;;13.90;99.90;;;;;;5133747;27;20143;-73
2023/05/15 10:54:04;;;;;;;24.45;13.13;;;13.80;99.90;;;;;;5133917;27;20051;-72
2023/05/15 10:56:31;;;;;;;15.52;7.80;;;13.60;99.90;;;;;;5133682;27;20038;-73
2023/05/15 10:59:03;;;;;;;17.75;10.35;;;13.60;99.90;;;;;;5133809;27;20024;-75
2023/05/15 11:01:34;;;;;;;42.58;13.40;;;13.40;99.90;;;;;;5133471;27;20559;-72
2023/05/15 11:04:22;;;;;;;59.37;22.60;;;13.30;99.90;;;;;;5133591;27;20133;-74
2023/05/15 11:06:49;;;;;;;22.38;7.43;;;13.40;99.90;;;;;;5133858;28;20027;-73
2023/05/15 11:09:21;;;;;;;42.35;13.95;;;13.40;99.90;;;;;;5132989;28;20037;-73
2023/05/15 11:12:00;;;;;;;13.52;6.63;;;13.40;99.90;;;;;;5106630;28;20029;-73
2023/05/15 11:14:36;;;;;;;6.28;2.85;;;13.60;99.90;;;;;;5133468;28;20028;-73
2023/05/15 11:17:04;;;;;;;40.30;15.13;;;13.80;99.90;;;;;;5133682;28;20023;-74
2023/05/15 11:19:32;;;;;;;26.63;6.63;;;13.30;99.90;;;;;;5133828;28;20455;-73
2023/05/15 11:22:27;;;;;;;26.55;3.00;;;13.10;99.90;;;;;;5115206;28;20458;-74
2023/05/15 11:25:11;;;;;;;13.40;6.30;;;13.20;99.90;;;;;;5132784;28;20547;-74
2023/05/15 11:27:41;;;;;;;8.82;5.75;;;13.20;99.90;;;;;;5134861;27;20028;-78
2023/05/15 11:30:07;;;;;;;21.48;10.15;;;13.30;99.90;;;;;;5137923;27;20031;-71
2023/05/15 11:32:55;;;;;;;9.50;6.65;;;13.10;99.90;;;;;;5137793;27;20031;-70
2023/05/15 11:35:46;;;;;;;16.65;6.32;;;13.20;99.90;;;;;;5137410;27;20142;-71
2023/05/15 11:38:16;;;;;;;17.73;3.72;;;13.10;99.90;;;;;;5137076;27;20031;-71
2023/05/15 11:40:45;;;;;;;0.30;0.30;;;13.40;99.90;;;;;;5119065;27;20035;-69
2023/05/15 11:43:30;;;;;;;9.23;4.53;;;13.60;99.90;;;;;;5137325;27;20075;-71
2023/05/15 11:46:07;;;;;;;8.02;5.10;;;13.50;99.90;;;;;;5112069;27;20064;-75
2023/05/15 11:48:40;;;;;;;7.00;5.22;;;13.30;99.90;;;;;;5137225;27;20360;-75
2023/05/15 11:51:34;;;;;;;27.30;7.75;;;13.40;99.90;;;;;;5137250;27;20484;-73
2023/05/15 11:54:03;;;;;;;16.50;5.63;;;13.30;99.90;;;;;;5115358;27;20138;-73
2023/05/15 11:56:28;;;;;;;4.03;3.28;;;13.20;99.90;;;;;;5137084;27;20443;-70
2023/05/15 11:58:57;;;;;;;13.93;5.65;;;13.20;99.90;;;;;;5137085;27;20019;-76
2023/05/15 12:01:23;;;;;;;0.68;0.65;;;13.20;99.90;;;;;;5136892;27;20023;-72
2023/05/15 12:03:49;;;;;;;4.72;3.75;;;13.20;99.90;;;;;;5137032;27;20047;-73
2023/05/15 12:06:16;;;;;;;4.28;2.08;;;12.90;99.90;;;;;;5118424;27;20383;-72
2023/05/15 12:08:42;;;;;;;1.27;1.05;;;12.80;99.90;;;;;;5137226;27;20371;-73
2023/05/15 12:11:08;;;;;;;2.75;2.08;;;12.70;99.90;;;;;;5121460;27;20032;-71
2023/05/15 12:13:34;;;;;;;0.30;0.30;;;12.70;99.90;;;;;;5129649;27;20475;-75
2023/05/15 12:16:02;;;;;;;10.30;5.38;;;12.60;99.90;;;;;;5137065;27;20113;-72
2023/05/15 12:18:30;;;;;;;9.95;1.85;;;12.70;99.90;;;;;;5136820;27;20023;-76
2023/05/15 12:20:55;;;;;;;12.85;4.43;;;12.70;99.90;;;;;;5136563;27;20448;-75
2023/05/15 12:23:23;;;;;;;7.90;2.92;;;12.40;99.90;;;;;;5136412;27;20106;-74
2023/05/15 12:25:53;;;;;;;4.32;2.22;;;12.30;99.90;;;;;;5118470;27;20062;-77
2023/05/15 12:28:20;;;;;;;3.70;1.00;;;12.30;99.90;;;;;;5136610;27;20031;-75
2023/05/15 12:30:46;;;;;;;2.50;1.88;;;12.30;99.90;;;;;;5101213;27;20030;-77
2023/05/15 12:33:12;;;;;;;0.73;0.68;;;12.30;99.90;;;;;;5136373;27;20049;-71
2023/05/15 12:35:42;;;;;;;2.47;1.85;;;12.30;99.90;;;;;;5136646;27;20031;-77
2023/05/15 12:38:14;;;;;;;2.53;1.70;;;12.30;99.90;;;;;;5135789;27;20475;-73
2023/05/15 12:40:42;;;;;;;16.27;1.58;;;12.30;99.90;;;;;;5135558;27;20263;-72
2023/05/15 12:43:09;;;;;;;1.08;0.77;;;12.10;99.90;;;;;;5136377;27;20070;-76
2023/05/15 12:45:37;;;;;;;6.95;1.60;;;12.20;99.90;;;;;;5136190;27;20041;-72